createdAt,value
2023-04-02T00:01:51.016Z,22.74
2023-04-02T00:04:22.312Z,22.80
2023-04-02T00:06:49.157Z,22.87
2023-04-02T00:09:15.980Z,22.86
2023-04-02T00:11:42.718Z,22.94
2023-04-02T00:14:09.677Z,23.01
2023-04-02T00:16:36.493Z,22.99
2023-04-02T00:19:03.309Z,21.91
2023-04-02T00:21:30.292Z,20.47
2023-04-02T00:23:57.079Z,19.55
2023-04-02T00:26:23.856Z,20.58
2023-04-02T00:28:51.128Z,20.95
2023-04-02T00:31:17.896Z,21.32
2023-04-02T00:33:44.644Z,21.58
2023-04-02T00:36:11.495Z,21.79
2023-04-02T00:38:40.187Z,21.93
2023-04-02T00:41:06.934Z,22.12
2023-04-02T00:43:33.700Z,22.29
2023-04-02T00:46:01.174Z,22.28
2023-04-02T00:48:27.988Z,22.45
2023-04-02T00:50:54.728Z,22.36
2023-04-02T00:53:21.619Z,22.54
2023-04-02T00:55:48.351Z,22.45
2023-04-02T00:58:15.583Z,22.57
2023-04-02T01:00:42.538Z,22.64
2023-04-02T01:03:11.140Z,22.56
2023-04-02T01:05:38.021Z,22.76
2023-04-02T01:08:04.834Z,22.82
2023-04-02T01:10:31.594Z,22.77
2023-04-02T01:12:58.375Z,22.88
2023-04-02T01:15:25.463Z,22.89
2023-04-02T01:17:54.330Z,22.94
2023-04-02T01:20:22.526Z,20.70
2023-04-02T01:22:49.319Z,19.49
2023-04-02T01:25:17.656Z,20.15
2023-04-02T01:27:44.419Z,20.34
2023-04-02T01:30:12.374Z,20.67
2023-04-02T01:32:39.148Z,21.42
2023-04-02T01:35:05.950Z,21.51
2023-04-02T01:37:32.728Z,21.83
2023-04-02T01:39:59.461Z,21.93
2023-04-02T01:42:26.210Z,21.98
2023-04-02T01:44:53.038Z,22.11
2023-04-02T01:47:19.781Z,22.26
2023-04-02T01:49:46.544Z,22.32
2023-04-02T01:52:13.517Z,22.36
2023-04-02T01:54:40.609Z,22.44
2023-04-02T01:57:07.406Z,22.52
2023-04-02T01:59:34.230Z,22.52
2023-04-02T02:02:01.238Z,22.62
2023-04-02T02:04:28.068Z,22.57
2023-04-02T02:06:54.859Z,22.64
2023-04-02T02:09:23.066Z,22.72
2023-04-02T02:11:49.959Z,22.77
2023-04-02T02:14:16.798Z,22.88
2023-04-02T02:16:43.597Z,22.78
2023-04-02T02:19:10.503Z,22.96
2023-04-02T02:21:37.313Z,22.62
2023-04-02T02:24:04.786Z,20.40
2023-04-02T02:26:33.808Z,19.59
2023-04-02T02:29:00.753Z,20.26
2023-04-02T02:31:27.851Z,20.12
2023-04-02T02:33:54.666Z,20.56
2023-04-02T02:36:22.804Z,20.85
2023-04-02T02:38:49.709Z,21.36
2023-04-02T02:41:16.486Z,21.59
2023-04-02T02:43:43.247Z,21.84
2023-04-02T02:46:10.194Z,21.84
2023-04-02T02:48:37.037Z,21.97
2023-04-02T02:51:03.798Z,22.16
2023-04-02T02:53:30.539Z,22.24
2023-04-02T02:55:57.278Z,22.27
2023-04-02T02:58:26.319Z,22.27
2023-04-02T03:00:53.101Z,22.40
2023-04-02T03:03:20.221Z,22.51
2023-04-02T03:05:47.905Z,22.50
2023-04-02T03:08:14.684Z,22.53
2023-04-02T03:10:41.442Z,22.76
2023-04-02T03:13:08.482Z,22.55
2023-04-02T03:15:35.541Z,22.77
2023-04-02T03:18:02.521Z,22.84
2023-04-02T03:20:29.347Z,22.76
2023-04-02T03:22:56.129Z,22.78
2023-04-02T03:25:22.915Z,22.84
2023-04-02T03:27:49.712Z,21.83
2023-04-02T03:30:16.477Z,19.96
2023-04-02T03:32:43.327Z,19.55
2023-04-02T03:35:10.631Z,20.34
2023-04-02T03:37:37.385Z,20.52
2023-04-02T03:40:04.492Z,21.10
2023-04-02T03:42:31.283Z,21.46
2023-04-02T03:44:58.092Z,21.71
2023-04-02T03:47:25.010Z,21.91
2023-04-02T03:49:51.781Z,21.91
2023-04-02T03:52:18.561Z,22.01
2023-04-02T03:54:54.226Z,22.19
2023-04-02T03:57:21.687Z,22.30
2023-04-02T03:59:48.451Z,22.18
2023-04-02T04:02:15.719Z,22.30
2023-04-02T04:04:42.510Z,22.46
2023-04-02T04:07:09.263Z,22.65
2023-04-02T04:09:36.193Z,22.60
2023-04-02T04:12:03.032Z,22.62
2023-04-02T04:14:29.815Z,22.65
2023-04-02T04:16:56.587Z,22.61
2023-04-02T04:19:23.414Z,22.73
2023-04-02T04:21:50.175Z,22.75
2023-04-02T04:24:17.085Z,22.70
2023-04-02T04:26:43.885Z,22.87
2023-04-02T04:29:12.287Z,22.92
2023-04-02T04:31:39.415Z,22.82
2023-04-02T04:34:06.326Z,22.88
2023-04-02T04:36:33.123Z,21.75
2023-04-02T04:38:59.907Z,20.28
2023-04-02T04:41:26.671Z,19.78
2023-04-02T04:43:53.461Z,20.32
2023-04-02T04:46:20.380Z,20.31
2023-04-02T04:48:47.196Z,20.43
2023-04-02T04:51:13.998Z,20.85
2023-04-02T04:53:40.746Z,21.30
2023-04-02T04:56:18.634Z,21.59
2023-04-02T04:58:46.600Z,21.79
2023-04-02T05:01:13.403Z,21.90
2023-04-02T05:03:40.299Z,21.97
2023-04-02T05:06:07.086Z,22.16
2023-04-02T05:08:33.869Z,22.20
2023-04-02T05:11:00.629Z,22.30
2023-04-02T05:13:27.721Z,22.33
2023-04-02T05:15:54.700Z,22.39
2023-04-02T05:18:21.531Z,22.38
2023-04-02T05:20:48.268Z,22.47
2023-04-02T05:23:15.263Z,22.47
2023-04-02T05:25:42.014Z,22.61
2023-04-02T05:28:08.751Z,22.71
2023-04-02T05:30:35.513Z,22.67
2023-04-02T05:33:04.654Z,22.73
2023-04-02T05:35:31.868Z,22.77
2023-04-02T05:37:58.768Z,22.84
2023-04-02T05:40:25.557Z,22.93
2023-04-02T05:42:55.699Z,22.84
2023-04-02T05:45:22.533Z,22.87
2023-04-02T05:47:49.334Z,22.91
2023-04-02T05:50:16.899Z,21.40
2023-04-02T05:52:43.644Z,20.03
2023-04-02T05:55:10.548Z,20.12
2023-04-02T05:57:44.624Z,20.40
2023-04-02T06:00:13.761Z,20.77
2023-04-02T06:02:41.319Z,21.20
2023-04-02T06:05:08.149Z,21.64
2023-04-02T06:07:34.904Z,21.78
2023-04-02T06:10:04.967Z,21.81
2023-04-02T06:12:31.752Z,22.06
2023-04-02T06:14:58.552Z,22.15
2023-04-02T06:17:25.482Z,22.13
2023-04-02T06:19:52.391Z,22.35
2023-04-02T06:22:19.334Z,22.37
2023-04-02T06:24:46.144Z,22.46
2023-04-02T06:27:12.890Z,22.50
2023-04-02T06:29:40.067Z,22.57
2023-04-02T06:32:06.946Z,22.59
2023-04-02T06:34:33.765Z,22.63
2023-04-02T06:37:00.682Z,22.65
2023-04-02T06:39:27.500Z,22.78
2023-04-02T06:41:54.241Z,22.76
2023-04-02T06:44:21.268Z,22.78
2023-04-02T06:46:50.559Z,22.92
2023-04-02T06:49:19.135Z,22.95
2023-04-02T06:51:45.975Z,22.91
2023-04-02T06:54:12.721Z,22.46
2023-04-02T06:56:39.460Z,20.46
2023-04-02T06:59:07.418Z,19.19
2023-04-02T07:01:34.339Z,20.13
2023-04-02T07:04:01.271Z,20.65
2023-04-02T07:06:28.177Z,21.24
2023-04-02T07:08:54.960Z,21.58
2023-04-02T07:11:21.877Z,21.74
2023-04-02T07:13:48.673Z,21.89
2023-04-02T07:16:15.679Z,22.00
2023-04-02T07:18:42.695Z,22.16
2023-04-02T07:21:09.472Z,22.21
2023-04-02T07:23:36.296Z,22.31
2023-04-02T07:26:03.327Z,22.30
2023-04-02T07:28:30.342Z,22.45
2023-04-02T07:30:57.099Z,22.46
2023-04-02T07:33:23.839Z,22.51
2023-04-02T07:35:50.824Z,22.62
2023-04-02T07:38:17.586Z,22.63
2023-04-02T07:40:44.343Z,22.73
2023-04-02T07:43:11.294Z,22.75
2023-04-02T07:45:38.324Z,22.82
2023-04-02T07:48:05.589Z,22.83
2023-04-02T07:50:32.438Z,22.92
2023-04-02T07:52:59.209Z,22.93
2023-04-02T07:55:25.962Z,22.92
2023-04-02T07:57:52.719Z,20.96
2023-04-02T08:00:20.508Z,18.59
2023-04-02T08:02:47.356Z,19.20
2023-04-02T08:05:14.527Z,20.01
2023-04-02T08:07:41.522Z,20.79
2023-04-02T08:10:08.289Z,21.29
2023-04-02T08:12:35.337Z,21.53
2023-04-02T08:15:02.152Z,21.78
2023-04-02T08:17:31.338Z,21.81
2023-04-02T08:20:00.981Z,22.09
2023-04-02T08:22:27.804Z,22.13
2023-04-02T08:24:54.556Z,22.14
2023-04-02T08:27:21.807Z,22.27
2023-04-02T08:29:48.562Z,22.23
2023-04-02T08:32:18.499Z,22.40
2023-04-02T08:34:45.401Z,22.39
2023-04-02T08:37:12.148Z,22.53
2023-04-02T08:39:38.919Z,22.63
2023-04-02T08:42:05.826Z,22.55
2023-04-02T08:44:32.622Z,22.57
2023-04-02T08:46:59.372Z,22.70
2023-04-02T08:49:26.928Z,22.73
2023-04-02T08:51:53.683Z,22.79
2023-04-02T08:54:20.426Z,22.91
2023-04-02T08:56:47.262Z,22.82
2023-04-02T08:59:14.031Z,22.93
2023-04-02T09:01:41.409Z,22.95
2023-04-02T09:04:08.289Z,21.78
2023-04-02T09:06:35.155Z,20.09
2023-04-02T09:09:02.034Z,19.47
2023-04-02T09:11:28.906Z,20.30
2023-04-02T09:13:55.899Z,20.57
2023-04-02T09:16:23.008Z,21.30
2023-04-02T09:18:49.837Z,21.50
2023-04-02T09:21:17.218Z,21.80
2023-04-02T09:23:43.969Z,21.84
2023-04-02T09:26:10.738Z,22.10
2023-04-02T09:28:37.466Z,22.23
2023-04-02T09:31:06.656Z,22.22
2023-04-02T09:33:34.563Z,22.24
2023-04-02T09:36:01.381Z,22.36
2023-04-02T09:38:30.722Z,22.40
2023-04-02T09:40:58.526Z,22.42
2023-04-02T09:43:25.421Z,22.52
2023-04-02T09:45:52.213Z,22.63
2023-04-02T09:48:19.212Z,22.66
2023-04-02T09:50:46.075Z,22.65
2023-04-02T09:53:12.833Z,22.79
2023-04-02T09:55:39.604Z,22.78
2023-04-02T09:58:06.985Z,22.81
2023-04-02T10:00:34.215Z,22.99
2023-04-02T10:03:01.356Z,22.81
2023-04-02T10:05:40.041Z,20.61
2023-04-02T10:08:08.358Z,18.99
2023-04-02T10:10:35.401Z,19.70
2023-04-02T10:13:02.380Z,20.48
2023-04-02T10:15:29.361Z,21.20
2023-04-02T10:17:56.316Z,21.56
2023-04-02T10:20:23.079Z,21.70
2023-04-02T10:22:50.110Z,21.83
2023-04-02T10:25:16.956Z,22.01
2023-04-02T10:27:44.489Z,22.09
2023-04-02T10:30:11.362Z,22.21
2023-04-02T10:32:38.227Z,22.21
2023-04-02T10:35:05.144Z,22.31
2023-04-02T10:37:32.135Z,22.38
2023-04-02T10:39:58.870Z,22.44
2023-04-02T10:42:25.605Z,22.54
2023-04-02T10:44:52.397Z,22.52
2023-04-02T10:47:19.174Z,22.66
2023-04-02T10:49:45.952Z,22.82
2023-04-02T10:52:13.574Z,22.77
2023-04-02T10:54:40.572Z,22.75
2023-04-02T10:57:07.391Z,22.69
2023-04-02T10:59:34.215Z,22.82
2023-04-02T11:02:00.998Z,22.93
2023-04-02T11:04:27.823Z,21.26
2023-04-02T11:07:07.269Z,19.90
2023-04-02T11:09:40.450Z,19.54
2023-04-02T11:12:07.225Z,20.35
2023-04-02T11:14:34.178Z,20.99
2023-04-02T11:17:02.661Z,21.49
2023-04-02T11:19:29.527Z,21.62
2023-04-02T11:22:00.258Z,21.91
2023-04-02T11:24:29.962Z,21.97
2023-04-02T11:26:56.739Z,22.11
2023-04-02T11:29:23.527Z,22.16
2023-04-02T11:31:50.835Z,22.17
2023-04-02T11:34:17.711Z,22.31
2023-04-02T11:36:44.467Z,22.44
2023-04-02T11:39:17.324Z,22.44
2023-04-02T11:41:44.545Z,22.48
2023-04-02T11:44:11.318Z,22.56
2023-04-02T11:46:38.075Z,22.57
2023-04-02T11:49:06.236Z,22.74
2023-04-02T11:51:33.041Z,22.82
2023-04-02T11:54:00.253Z,22.67
2023-04-02T11:56:27.534Z,22.84
2023-04-02T11:58:54.286Z,22.90
2023-04-02T12:01:21.269Z,22.91
2023-04-02T12:03:48.039Z,22.87
2023-04-02T12:06:16.193Z,22.46
2023-04-02T12:08:57.129Z,20.04
2023-04-02T12:11:24.593Z,19.07
2023-04-02T12:13:51.457Z,20.24
2023-04-02T12:16:18.293Z,20.57
2023-04-02T12:18:46.595Z,21.39
2023-04-02T12:21:13.339Z,21.59
2023-04-02T12:23:40.113Z,21.87
2023-04-02T12:26:06.931Z,22.00
2023-04-02T12:28:33.868Z,22.04
2023-04-02T12:31:00.693Z,22.16
2023-04-02T12:33:27.703Z,22.29
2023-04-02T12:35:54.475Z,22.37
2023-04-02T12:38:21.418Z,22.47
2023-04-02T12:40:48.181Z,22.40
2023-04-02T12:43:15.057Z,22.44
2023-04-02T12:45:42.702Z,22.65
2023-04-02T12:48:09.528Z,22.62
2023-04-02T12:50:36.459Z,22.67
2023-04-02T12:53:03.381Z,22.73
2023-04-02T12:55:31.665Z,22.69
2023-04-02T12:57:58.405Z,22.86
2023-04-02T13:00:25.550Z,22.85
2023-04-02T13:02:52.391Z,22.82
2023-04-02T13:05:19.153Z,22.88
2023-04-02T13:07:45.924Z,22.07
2023-04-02T13:10:12.721Z,20.00
2023-04-02T13:12:39.538Z,19.32
2023-04-02T13:15:06.389Z,20.27
2023-04-02T13:17:33.159Z,20.49
2023-04-02T13:20:00.137Z,21.08
2023-04-02T13:22:28.381Z,21.42
2023-04-02T13:24:55.144Z,21.66
2023-04-02T13:27:21.922Z,21.82
2023-04-02T13:29:48.680Z,21.98
2023-04-02T13:32:15.521Z,22.06
2023-04-02T13:34:42.295Z,22.12
2023-04-02T13:37:09.061Z,22.27
2023-04-02T13:39:35.879Z,22.36
2023-04-02T13:42:02.704Z,22.47
2023-04-02T13:44:29.524Z,22.52
2023-04-02T13:46:56.342Z,22.55
2023-04-02T13:49:23.081Z,22.59
2023-04-02T13:51:49.905Z,22.60
2023-04-02T13:54:16.821Z,22.71
2023-04-02T13:56:43.586Z,22.78
2023-04-02T13:59:10.446Z,22.71
2023-04-02T14:01:37.376Z,22.87
2023-04-02T14:04:05.634Z,22.79
2023-04-02T14:06:32.528Z,22.91
2023-04-02T14:08:59.415Z,22.37
2023-04-02T14:11:26.219Z,19.93
2023-04-02T14:13:52.985Z,18.36
2023-04-02T14:16:19.842Z,19.82
2023-04-02T14:18:46.593Z,20.62
2023-04-02T14:21:13.392Z,21.42
2023-04-02T14:23:40.356Z,21.58
2023-04-02T14:26:07.123Z,21.82
2023-04-02T14:28:38.073Z,21.94
2023-04-02T14:31:04.907Z,22.04
2023-04-02T14:33:31.663Z,22.09
2023-04-02T14:35:58.450Z,22.24
2023-04-02T14:38:25.356Z,22.43
2023-04-02T14:40:52.143Z,22.35
2023-04-02T14:43:18.904Z,22.45
2023-04-02T14:45:45.658Z,22.48
2023-04-02T14:48:12.401Z,22.59
2023-04-02T14:50:39.202Z,22.70
2023-04-02T14:53:05.983Z,22.64
2023-04-02T14:55:32.807Z,22.72
2023-04-02T14:57:59.800Z,22.76
2023-04-02T15:00:27.361Z,22.82
2023-04-02T15:02:54.383Z,23.07
2023-04-02T15:05:21.250Z,22.87
2023-04-02T15:07:48.167Z,22.89
2023-04-02T15:10:15.676Z,22.54
2023-04-02T15:12:42.572Z,19.78
2023-04-02T15:15:09.354Z,18.53
2023-04-02T15:17:36.126Z,19.91
2023-04-02T15:20:02.929Z,20.64
2023-04-02T15:22:29.691Z,21.27
2023-04-02T15:24:56.442Z,21.60
2023-04-02T15:27:25.502Z,21.80
2023-04-02T15:29:52.835Z,21.98
2023-04-02T15:32:19.599Z,22.13
2023-04-02T15:34:46.339Z,22.04
2023-04-02T15:37:13.450Z,22.20
2023-04-02T15:39:40.401Z,22.21
2023-04-02T15:42:07.178Z,22.29
2023-04-02T15:44:33.965Z,22.48
2023-04-02T15:47:00.840Z,22.52
2023-04-02T15:49:27.604Z,22.47
2023-04-02T15:51:54.376Z,22.47
2023-04-02T15:54:21.400Z,22.71
2023-04-02T15:56:48.186Z,22.71
2023-04-02T15:59:14.967Z,22.87
2023-04-02T16:01:41.849Z,22.90
2023-04-02T16:04:08.927Z,22.91
2023-04-02T16:06:35.780Z,22.91
2023-04-02T16:09:02.593Z,22.95
2023-04-02T16:11:29.340Z,20.82
2023-04-02T16:13:56.166Z,18.91
2023-04-02T16:16:23.012Z,19.30
2023-04-02T16:18:49.822Z,20.32
2023-04-02T16:21:16.866Z,21.05
2023-04-02T16:23:43.622Z,21.43
2023-04-02T16:26:12.832Z,21.59
2023-04-02T16:28:39.635Z,21.79
2023-04-02T16:31:06.402Z,21.96
2023-04-02T16:33:33.222Z,22.06
2023-04-02T16:36:00.038Z,22.17
2023-04-02T16:38:26.807Z,22.37
2023-04-02T16:41:06.994Z,22.29
2023-04-02T16:43:34.948Z,22.40
2023-04-02T16:46:01.720Z,22.58
2023-04-02T16:48:28.588Z,22.57
2023-04-02T16:50:55.501Z,22.59
2023-04-02T16:53:22.289Z,22.72
2023-04-02T16:55:49.048Z,22.67
2023-04-02T16:58:16.106Z,22.64
2023-04-02T17:00:42.892Z,22.83
2023-04-02T17:03:09.858Z,22.86
2023-04-02T17:05:36.869Z,22.79
2023-04-02T17:08:03.705Z,22.92
2023-04-02T17:10:30.669Z,22.70
2023-04-02T17:12:57.499Z,20.46
2023-04-02T17:15:28.199Z,19.33
2023-04-02T17:17:55.505Z,19.97
2023-04-02T17:20:22.309Z,20.23
2023-04-02T17:22:49.103Z,20.95
2023-04-02T17:25:15.906Z,21.36
2023-04-02T17:27:42.680Z,21.62
2023-04-02T17:30:09.528Z,21.84
2023-04-02T17:32:36.869Z,21.99
2023-04-02T17:35:03.704Z,22.20
2023-04-02T17:37:30.451Z,22.27
2023-04-02T17:39:57.192Z,22.28
2023-04-02T17:42:23.940Z,22.40
2023-04-02T17:44:50.755Z,22.37
2023-04-02T17:47:17.501Z,22.49
2023-04-02T17:49:44.271Z,22.54
2023-04-02T17:52:11.465Z,22.60
2023-04-02T17:54:38.264Z,22.69
2023-04-02T17:57:05.058Z,22.66
2023-04-02T17:59:31.848Z,22.84
2023-04-02T18:01:58.636Z,22.86
2023-04-02T18:04:25.408Z,22.82
2023-04-02T18:06:52.158Z,22.83
2023-04-02T18:09:19.205Z,22.95
2023-04-02T18:11:46.002Z,22.55
2023-04-02T18:14:12.744Z,20.38
2023-04-02T18:16:39.559Z,19.43
2023-04-02T18:19:08.241Z,20.25
2023-04-02T18:21:34.989Z,20.69
2023-04-02T18:24:01.796Z,21.25
2023-04-02T18:26:28.603Z,21.64
2023-04-02T18:28:55.442Z,21.79
2023-04-02T18:31:22.264Z,21.91
2023-04-02T18:33:49.433Z,22.05
2023-04-02T18:36:16.300Z,22.13
2023-04-02T18:38:43.158Z,22.29
2023-04-02T18:41:09.943Z,22.37
2023-04-02T18:43:36.735Z,22.48
2023-04-02T18:46:05.126Z,22.47
2023-04-02T18:48:31.987Z,22.53
2023-04-02T18:50:58.741Z,22.61
2023-04-02T18:53:25.712Z,22.65
2023-04-02T18:55:52.521Z,22.60
2023-04-02T18:58:19.328Z,22.76
2023-04-02T19:00:46.090Z,22.88
2023-04-02T19:03:13.037Z,22.78
2023-04-02T19:05:40.721Z,22.81
2023-04-02T19:08:07.532Z,22.89
2023-04-02T19:10:34.297Z,22.91
2023-04-02T19:13:01.380Z,20.68
2023-04-02T19:15:28.176Z,19.95
2023-04-02T19:17:54.991Z,20.08
2023-04-02T19:20:21.813Z,20.42
2023-04-02T19:22:48.565Z,21.19
2023-04-02T19:25:15.700Z,21.56
2023-04-02T19:27:42.448Z,21.75
2023-04-02T19:30:09.492Z,21.86
2023-04-02T19:32:36.326Z,22.19
2023-04-02T19:35:03.147Z,22.22
2023-04-02T19:37:29.874Z,22.16
2023-04-02T19:39:57.321Z,22.29
2023-04-02T19:42:24.084Z,22.27
2023-04-02T19:44:50.854Z,22.35
2023-04-02T19:47:17.627Z,22.43
2023-04-02T19:49:44.390Z,22.56
2023-04-02T19:52:11.154Z,22.63
2023-04-02T19:54:38.704Z,22.57
2023-04-02T19:57:05.703Z,22.72
2023-04-02T19:59:32.639Z,22.72
2023-04-02T20:01:59.419Z,22.77
2023-04-02T20:04:26.229Z,22.78
2023-04-02T20:06:54.263Z,22.93
2023-04-02T20:09:21.770Z,22.92
2023-04-02T20:11:48.844Z,22.81
2023-04-02T20:14:15.674Z,20.74
2023-04-02T20:16:44.531Z,19.84
2023-04-02T20:19:12.510Z,20.22
2023-04-02T20:21:39.351Z,20.35
2023-04-02T20:24:06.110Z,21.12
2023-04-02T20:26:32.874Z,21.57
2023-04-02T20:28:59.635Z,21.79
2023-04-02T20:31:26.546Z,21.93
2023-04-02T20:33:53.486Z,21.98
2023-04-02T20:36:20.275Z,22.09
2023-04-02T20:38:47.034Z,22.25
2023-04-02T20:41:15.964Z,22.33
2023-04-02T20:43:42.855Z,22.34
2023-04-02T20:46:11.704Z,22.47
2023-04-02T20:48:39.248Z,22.56
2023-04-02T20:51:06.043Z,22.57
2023-04-02T20:53:33.552Z,22.70
2023-04-02T20:56:00.305Z,22.88
2023-04-02T20:58:27.080Z,22.63
2023-04-02T21:00:53.867Z,22.85
2023-04-02T21:03:20.647Z,22.79
2023-04-02T21:05:47.450Z,22.84
2023-04-02T21:08:14.237Z,22.78
2023-04-02T21:10:41.116Z,22.94
2023-04-02T21:13:07.878Z,21.11
2023-04-02T21:15:34.937Z,20.03
2023-04-02T21:18:02.219Z,20.23
2023-04-02T21:20:29.083Z,20.26
2023-04-02T21:22:55.949Z,20.64
2023-04-02T21:25:22.724Z,20.37
2023-04-02T21:27:49.556Z,20.85
2023-04-02T21:30:16.365Z,21.21
2023-04-02T21:32:43.210Z,21.54
2023-04-02T21:35:10.148Z,21.73
2023-04-02T21:37:36.910Z,21.90
2023-04-02T21:40:03.657Z,21.91
2023-04-02T21:42:30.462Z,22.20
2023-04-02T21:44:57.312Z,22.14
2023-04-02T21:47:24.807Z,22.28
2023-04-02T21:49:51.568Z,22.33
2023-04-02T21:52:18.351Z,22.39
2023-04-02T21:54:45.117Z,22.42
2023-04-02T21:57:11.892Z,22.46
2023-04-02T21:59:38.729Z,22.58
2023-04-02T22:02:06.803Z,22.58
2023-04-02T22:04:33.704Z,22.65
2023-04-02T22:07:00.761Z,22.67
2023-04-02T22:09:27.545Z,22.88
2023-04-02T22:11:54.455Z,22.77
2023-04-02T22:14:21.400Z,22.85
2023-04-02T22:16:48.224Z,22.86
2023-04-02T22:19:15.067Z,22.84
2023-04-02T22:21:41.892Z,22.93
2023-04-02T22:24:11.444Z,22.63
2023-04-02T22:26:38.253Z,20.51
2023-04-02T22:29:05.027Z,19.73
2023-04-02T22:31:33.072Z,20.33
2023-04-02T22:34:00.131Z,20.29
2023-04-02T22:36:26.997Z,20.98
2023-04-02T22:38:53.755Z,21.41
2023-04-02T22:41:21.441Z,21.71
2023-04-02T22:43:48.232Z,21.82
2023-04-02T22:46:15.094Z,21.90
2023-04-02T22:48:42.238Z,22.09
2023-04-02T22:51:09.162Z,22.27
2023-04-02T22:53:36.498Z,22.39
2023-04-02T22:56:03.439Z,22.43
2023-04-02T22:58:30.224Z,22.46
2023-04-02T23:00:56.966Z,22.50
2023-04-02T23:03:23.732Z,22.58
2023-04-02T23:05:50.610Z,22.64
2023-04-02T23:08:17.372Z,22.59
2023-04-02T23:10:44.124Z,22.71
2023-04-02T23:13:10.969Z,22.77
2023-04-02T23:15:37.786Z,22.71
2023-04-02T23:18:04.617Z,22.93
2023-04-02T23:20:31.399Z,22.86
2023-04-02T23:22:58.129Z,22.90
2023-04-02T23:25:24.899Z,22.88
2023-04-02T23:27:51.675Z,22.95
2023-04-02T23:30:18.422Z,21.26
2023-04-02T23:32:45.200Z,19.74
2023-04-02T23:35:11.966Z,19.92
2023-04-02T23:37:38.757Z,20.36
2023-04-02T23:40:06.020Z,21.09
2023-04-02T23:42:32.874Z,21.45
2023-04-02T23:44:59.650Z,21.74
2023-04-02T23:47:26.473Z,21.89
2023-04-02T23:49:53.281Z,22.01
2023-04-02T23:52:20.129Z,22.11
2023-04-02T23:54:47.015Z,22.24
2023-04-02T23:57:14.908Z,22.28
2023-04-02T23:59:41.713Z,22.45
